sensor_id;sensor_type;location;lat;lon;timestamp;temperature;humidity
16180;DHT22;8196;49.428;10.906;2023-05-14T00:01:15;6.20;99.90
16180;DHT22;8196;49.428;10.906;2023-05-14T00:03:41;6.90;99.90
16180;DHT22;8196;49.428;10.906;2023-05-14T00:06:08;6.90;99.90
16180;DHT22;8196;49.428;10.906;2023-05-14T00:08:36;6.90;99.90
16180;DHT22;8196;49.428;10.906;2023-05-14T00:11:03;6.90;99.90
16180;DHT22;8196;49.428;10.906;2023-05-14T00:13:29;6.80;99.90
16180;DHT22;8196;49.428;10.906;2023-05-14T00:15:56;6.80;99.90
16180;DHT22;8196;49.428;10.906;2023-05-14T00:18:23;6.70;99.90
16180;DHT22;8196;49.428;10.906;2023-05-14T00:20:49;10.60;99.90
16180;DHT22;8196;49.428;10.906;2023-05-14T00:23:20;6.70;99.90
16180;DHT22;8196;49.428;10.906;2023-05-14T00:25:47;6.70;99.90
16180;DHT22;8196;49.428;10.906;2023-05-14T00:28:14;6.70;99.90
16180;DHT22;8196;49.428;10.906;2023-05-14T00:30:41;6.60;99.90
16180;DHT22;8196;49.428;10.906;2023-05-14T00:33:08;6.60;99.90
16180;DHT22;8196;49.428;10.906;2023-05-14T00:35:34;6.50;99.90
16180;DHT22;8196;49.428;10.906;2023-05-14T00:38:02;6.50;99.90
16180;DHT22;8196;49.428;10.906;2023-05-14T00:40:29;6.50;99.90
16180;DHT22;8196;49.428;10.906;2023-05-14T00:42:56;6.50;99.90
16180;DHT22;8196;49.428;10.906;2023-05-14T00:45:23;6.40;99.90
16180;DHT22;8196;49.428;10.906;2023-05-14T00:47:50;6.40;99.90
16180;DHT22;8196;49.428;10.906;2023-05-14T00:50:17;6.40;99.90
16180;DHT22;8196;49.428;10.906;2023-05-14T00:52:44;6.40;99.90
16180;DHT22;8196;49.428;10.906;2023-05-14T00:55:12;6.30;99.90
16180;DHT22;8196;49.428;10.906;2023-05-14T00:57:42;6.40;99.90
16180;DHT22;8196;49.428;10.906;2023-05-14T01:00:09;6.30;99.90
16180;DHT22;8196;49.428;10.906;2023-05-14T01:02:36;6.30;99.90
16180;DHT22;8196;49.428;10.906;2023-05-14T01:05:03;6.30;99.90
16180;DHT22;8196;49.428;10.906;2023-05-14T01:10:10;6.30;99.90
16180;DHT22;8196;49.428;10.906;2023-05-14T01:12:40;6.20;99.90
16180;DHT22;8196;49.428;10.906;2023-05-14T01:15:14;9.40;99.90
16180;DHT22;8196;49.428;10.906;2023-05-14T01:17:51;6.10;99.90
16180;DHT22;8196;49.428;10.906;2023-05-14T01:20:19;6.00;99.90
16180;DHT22;8196;49.428;10.906;2023-05-14T01:22:46;6.00;99.90
16180;DHT22;8196;49.428;10.906;2023-05-14T01:25:13;6.00;99.90
16180;DHT22;8196;49.428;10.906;2023-05-14T01:30:28;6.10;99.90
16180;DHT22;8196;49.428;10.906;2023-05-14T01:32:59;6.20;99.90
16180;DHT22;8196;49.428;10.906;2023-05-14T01:38:00;6.40;99.90
16180;DHT22;8196;49.428;10.906;2023-05-14T01:40:27;6.60;99.90
16180;DHT22;8196;49.428;10.906;2023-05-14T01:42:55;6.60;99.90
16180;DHT22;8196;49.428;10.906;2023-05-14T01:45:23;6.80;99.90
16180;DHT22;8196;49.428;10.906;2023-05-14T01:47:50;6.80;99.90
16180;DHT22;8196;49.428;10.906;2023-05-14T01:50:17;6.90;99.90
16180;DHT22;8196;49.428;10.906;2023-05-14T01:52:44;7.00;99.90
16180;DHT22;8196;49.428;10.906;2023-05-14T01:55:11;7.10;99.90
16180;DHT22;8196;49.428;10.906;2023-05-14T01:57:38;7.10;99.90
16180;DHT22;8196;49.428;10.906;2023-05-14T02:00:05;7.20;99.90
16180;DHT22;8196;49.428;10.906;2023-05-14T02:02:32;7.20;99.90
16180;DHT22;8196;49.428;10.906;2023-05-14T02:04:59;7.20;99.90
16180;DHT22;8196;49.428;10.906;2023-05-14T02:07:25;7.20;99.90
16180;DHT22;8196;49.428;10.906;2023-05-14T02:09:52;7.20;99.90
16180;DHT22;8196;49.428;10.906;2023-05-14T02:12:19;7.20;99.90
16180;DHT22;8196;49.428;10.906;2023-05-14T02:14:46;7.30;99.90
16180;DHT22;8196;49.428;10.906;2023-05-14T02:17:13;7.60;99.90
16180;DHT22;8196;49.428;10.906;2023-05-14T02:19:42;7.30;99.90
16180;DHT22;8196;49.428;10.906;2023-05-14T02:22:09;7.40;99.90
16180;DHT22;8196;49.428;10.906;2023-05-14T02:24:36;7.40;99.90
16180;DHT22;8196;49.428;10.906;2023-05-14T02:27:03;7.40;99.90
16180;DHT22;8196;49.428;10.906;2023-05-14T02:29:30;7.50;99.90
16180;DHT22;8196;49.428;10.906;2023-05-14T02:31:56;7.50;99.90
16180;DHT22;8196;49.428;10.906;2023-05-14T02:34:23;7.50;99.90
16180;DHT22;8196;49.428;10.906;2023-05-14T02:36:50;7.50;99.90
16180;DHT22;8196;49.428;10.906;2023-05-14T02:39:16;7.50;99.90
16180;DHT22;8196;49.428;10.906;2023-05-14T02:41:43;7.50;99.90
16180;DHT22;8196;49.428;10.906;2023-05-14T02:44:10;7.50;99.90
16180;DHT22;8196;49.428;10.906;2023-05-14T02:46:36;7.60;99.90
16180;DHT22;8196;49.428;10.906;2023-05-14T02:49:03;7.60;99.90
16180;DHT22;8196;49.428;10.906;2023-05-14T02:51:30;7.60;99.90
16180;DHT22;8196;49.428;10.906;2023-05-14T02:53:57;7.60;99.90
16180;DHT22;8196;49.428;10.906;2023-05-14T02:56:23;7.60;99.90
16180;DHT22;8196;49.428;10.906;2023-05-14T02:58:52;7.60;99.90
16180;DHT22;8196;49.428;10.906;2023-05-14T03:01:19;7.60;99.90
16180;DHT22;8196;49.428;10.906;2023-05-14T03:03:48;7.60;99.90
16180;DHT22;8196;49.428;10.906;2023-05-14T03:06:15;7.60;99.90
16180;DHT22;8196;49.428;10.906;2023-05-14T03:08:42;7.60;99.90
16180;DHT22;8196;49.428;10.906;2023-05-14T03:11:08;7.90;99.90
16180;DHT22;8196;49.428;10.906;2023-05-14T03:13:35;7.70;99.90
16180;DHT22;8196;49.428;10.906;2023-05-14T03:16:02;7.70;99.90
16180;DHT22;8196;49.428;10.906;2023-05-14T03:18:28;7.70;99.90
16180;DHT22;8196;49.428;10.906;2023-05-14T03:20:56;7.70;99.90
16180;DHT22;8196;49.428;10.906;2023-05-14T03:23:23;7.70;99.90
16180;DHT22;8196;49.428;10.906;2023-05-14T03:25:49;7.80;99.90
16180;DHT22;8196;49.428;10.906;2023-05-14T03:28:16;7.80;99.90
16180;DHT22;8196;49.428;10.906;2023-05-14T03:30:43;7.80;99.90
16180;DHT22;8196;49.428;10.906;2023-05-14T03:33:10;7.80;99.90
16180;DHT22;8196;49.428;10.906;2023-05-14T03:35:37;10.40;99.90
16180;DHT22;8196;49.428;10.906;2023-05-14T03:38:03;7.90;99.90
16180;DHT22;8196;49.428;10.906;2023-05-14T03:40:30;7.90;99.90
16180;DHT22;8196;49.428;10.906;2023-05-14T03:42:57;7.90;99.90
16180;DHT22;8196;49.428;10.906;2023-05-14T03:45:23;7.90;99.90
16180;DHT22;8196;49.428;10.906;2023-05-14T03:47:50;7.90;99.90
16180;DHT22;8196;49.428;10.906;2023-05-14T03:50:17;8.00;99.90
16180;DHT22;8196;49.428;10.906;2023-05-14T03:52:44;8.00;99.90
16180;DHT22;8196;49.428;10.906;2023-05-14T03:55:11;8.00;99.90
16180;DHT22;8196;49.428;10.906;2023-05-14T03:57:39;8.00;99.90
16180;DHT22;8196;49.428;10.906;2023-05-14T04:00:06;8.00;99.90
16180;DHT22;8196;49.428;10.906;2023-05-14T04:02:33;8.10;99.90
16180;DHT22;8196;49.428;10.906;2023-05-14T04:04:59;8.20;99.90
16180;DHT22;8196;49.428;10.906;2023-05-14T04:07:26;8.20;99.90
16180;DHT22;8196;49.428;10.906;2023-05-14T04:09:53;6.80;99.90
16180;DHT22;8196;49.428;10.906;2023-05-14T04:12:19;8.30;99.90
16180;DHT22;8196;49.428;10.906;2023-05-14T04:14:46;8.40;99.90
16180;DHT22;8196;49.428;10.906;2023-05-14T04:17:13;8.50;99.90
16180;DHT22;8196;49.428;10.906;2023-05-14T04:19:39;8.50;99.90
16180;DHT22;8196;49.428;10.906;2023-05-14T04:22:06;8.50;99.90
16180;DHT22;8196;49.428;10.906;2023-05-14T04:24:33;8.50;99.90
16180;DHT22;8196;49.428;10.906;2023-05-14T04:26:59;8.60;99.90
16180;DHT22;8196;49.428;10.906;2023-05-14T04:29:26;8.70;99.90
16180;DHT22;8196;49.428;10.906;2023-05-14T04:31:53;8.70;99.90
16180;DHT22;8196;49.428;10.906;2023-05-14T04:34:20;11.00;99.90
16180;DHT22;8196;49.428;10.906;2023-05-14T04:36:46;8.90;99.90
16180;DHT22;8196;49.428;10.906;2023-05-14T04:39:13;9.00;99.90
16180;DHT22;8196;49.428;10.906;2023-05-14T04:41:40;9.00;99.90
16180;DHT22;8196;49.428;10.906;2023-05-14T04:44:08;9.10;99.90
16180;DHT22;8196;49.428;10.906;2023-05-14T04:46:34;9.30;99.90
16180;DHT22;8196;49.428;10.906;2023-05-14T04:49:01;9.30;99.90
16180;DHT22;8196;49.428;10.906;2023-05-14T04:51:28;9.40;99.90
16180;DHT22;8196;49.428;10.906;2023-05-14T04:53:54;9.40;99.90
16180;DHT22;8196;49.428;10.906;2023-05-14T04:56:21;9.60;99.90
16180;DHT22;8196;49.428;10.906;2023-05-14T04:58:48;9.60;99.90
16180;DHT22;8196;49.428;10.906;2023-05-14T05:01:14;9.70;99.90
16180;DHT22;8196;49.428;10.906;2023-05-14T05:03:41;9.60;99.90
16180;DHT22;8196;49.428;10.906;2023-05-14T05:06:08;9.60;99.90
16180;DHT22;8196;49.428;10.906;2023-05-14T05:08:35;9.80;99.90
16180;DHT22;8196;49.428;10.906;2023-05-14T05:11:02;9.60;99.90
16180;DHT22;8196;49.428;10.906;2023-05-14T05:13:29;9.60;99.90
16180;DHT22;8196;49.428;10.906;2023-05-14T05:15:57;9.70;99.90
16180;DHT22;8196;49.428;10.906;2023-05-14T05:18:24;10.00;99.90
16180;DHT22;8196;49.428;10.906;2023-05-14T05:20:51;10.60;99.90
16180;DHT22;8196;49.428;10.906;2023-05-14T05:23:18;11.20;99.90
16180;DHT22;8196;49.428;10.906;2023-05-14T05:25:45;11.90;99.90
16180;DHT22;8196;49.428;10.906;2023-05-14T05:28:12;12.30;99.90
16180;DHT22;8196;49.428;10.906;2023-05-14T05:30:39;12.60;99.90
16180;DHT22;8196;49.428;10.906;2023-05-14T05:33:05;12.90;99.90
16180;DHT22;8196;49.428;10.906;2023-05-14T05:35:32;13.30;99.90
16180;DHT22;8196;49.428;10.906;2023-05-14T05:37:59;13.40;99.90
16180;DHT22;8196;49.428;10.906;2023-05-14T05:40:27;13.60;99.90
16180;DHT22;8196;49.428;10.906;2023-05-14T05:42:54;13.70;99.90
16180;DHT22;8196;49.428;10.906;2023-05-14T05:45:21;14.00;99.90
16180;DHT22;8196;49.428;10.906;2023-05-14T05:47:47;14.00;99.90
16180;DHT22;8196;49.428;10.906;2023-05-14T05:50:14;14.20;99.90
16180;DHT22;8196;49.428;10.906;2023-05-14T05:52:42;14.50;99.90
16180;DHT22;8196;49.428;10.906;2023-05-14T05:55:09;14.60;99.90
16180;DHT22;8196;49.428;10.906;2023-05-14T05:57:36;14.70;99.90
16180;DHT22;8196;49.428;10.906;2023-05-14T06:00:03;14.60;99.90
16180;DHT22;8196;49.428;10.906;2023-05-14T06:02:39;14.40;99.90
16180;DHT22;8196;49.428;10.906;2023-05-14T06:05:07;13.80;99.90
16180;DHT22;8196;49.428;10.906;2023-05-14T06:07:34;13.70;99.90
16180;DHT22;8196;49.428;10.906;2023-05-14T06:10:01;13.50;99.90
16180;DHT22;8196;49.428;10.906;2023-05-14T06:12:28;13.30;99.90
16180;DHT22;8196;49.428;10.906;2023-05-14T06:14:55;15.20;99.90
16180;DHT22;8196;49.428;10.906;2023-05-14T06:17:24;13.20;99.90
16180;DHT22;8196;49.428;10.906;2023-05-14T06:19:51;13.30;99.90
16180;DHT22;8196;49.428;10.906;2023-05-14T06:22:18;13.30;99.90
16180;DHT22;8196;49.428;10.906;2023-05-14T06:24:46;13.30;99.90
16180;DHT22;8196;49.428;10.906;2023-05-14T06:27:12;13.30;99.90
16180;DHT22;8196;49.428;10.906;2023-05-14T06:29:39;13.40;99.90
16180;DHT22;8196;49.428;10.906;2023-05-14T06:32:06;13.50;99.90
16180;DHT22;8196;49.428;10.906;2023-05-14T06:34:33;16.20;99.90
16180;DHT22;8196;49.428;10.906;2023-05-14T06:37:00;13.60;99.90
16180;DHT22;8196;49.428;10.906;2023-05-14T06:39:29;13.90;99.90
16180;DHT22;8196;49.428;10.906;2023-05-14T06:41:56;14.10;99.90
16180;DHT22;8196;49.428;10.906;2023-05-14T06:44:22;14.20;99.90
16180;DHT22;8196;49.428;10.906;2023-05-14T06:46:49;14.40;99.90
16180;DHT22;8196;49.428;10.906;2023-05-14T06:49:16;14.50;99.90
16180;DHT22;8196;49.428;10.906;2023-05-14T06:51:43;14.50;99.90
16180;DHT22;8196;49.428;10.906;2023-05-14T06:54:09;14.50;99.90
16180;DHT22;8196;49.428;10.906;2023-05-14T06:56:36;14.50;99.90
16180;DHT22;8196;49.428;10.906;2023-05-14T06:59:03;14.70;99.90
16180;DHT22;8196;49.428;10.906;2023-05-14T07:01:29;14.70;99.90
16180;DHT22;8196;49.428;10.906;2023-05-14T07:03:56;14.70;99.90
16180;DHT22;8196;49.428;10.906;2023-05-14T07:06:23;14.60;99.90
16180;DHT22;8196;49.428;10.906;2023-05-14T07:08:50;14.60;99.90
16180;DHT22;8196;49.428;10.906;2023-05-14T07:11:16;14.80;99.90
16180;DHT22;8196;49.428;10.906;2023-05-14T07:13:43;15.00;99.90
16180;DHT22;8196;49.428;10.906;2023-05-14T07:16:10;15.10;99.90
16180;DHT22;8196;49.428;10.906;2023-05-14T07:18:37;15.30;99.90
16180;DHT22;8196;49.428;10.906;2023-05-14T07:21:04;15.60;99.90
16180;DHT22;8196;49.428;10.906;2023-05-14T07:23:32;15.90;99.90
16180;DHT22;8196;49.428;10.906;2023-05-14T07:26:02;16.30;99.90
16180;DHT22;8196;49.428;10.906;2023-05-14T07:28:29;16.50;99.90
16180;DHT22;8196;49.428;10.906;2023-05-14T07:30:56;16.70;98.90
16180;DHT22;8196;49.428;10.906;2023-05-14T07:33:23;16.90;98.00
16180;DHT22;8196;49.428;10.906;2023-05-14T07:35:51;17.10;95.60
16180;DHT22;8196;49.428;10.906;2023-05-14T07:38:18;17.00;94.60
16180;DHT22;8196;49.428;10.906;2023-05-14T07:40:45;16.30;94.70
16180;DHT22;8196;49.428;10.906;2023-05-14T07:43:13;16.50;95.70
16180;DHT22;8196;49.428;10.906;2023-05-14T07:45:40;16.30;96.20
16180;DHT22;8196;49.428;10.906;2023-05-14T07:48:07;16.20;96.70
16180;DHT22;8196;49.428;10.906;2023-05-14T07:50:34;16.10;96.60
16180;DHT22;8196;49.428;10.906;2023-05-14T07:53:01;16.00;96.60
16180;DHT22;8196;49.428;10.906;2023-05-14T07:55:27;16.00;96.30
16180;DHT22;8196;49.428;10.906;2023-05-14T07:57:54;15.90;96.40
16180;DHT22;8196;49.428;10.906;2023-05-14T08:00:21;16.00;97.10
16180;DHT22;8196;49.428;10.906;2023-05-14T08:02:48;16.30;97.10
16180;DHT22;8196;49.428;10.906;2023-05-14T08:05:16;13.80;94.40
16180;DHT22;8196;49.428;10.906;2023-05-14T08:07:43;16.90;95.80
16180;DHT22;8196;49.428;10.906;2023-05-14T08:10:10;17.20;93.20
16180;DHT22;8196;49.428;10.906;2023-05-14T08:12:37;17.00;92.10
16180;DHT22;8196;49.428;10.906;2023-05-14T08:15:05;17.30;92.80
16180;DHT22;8196;49.428;10.906;2023-05-14T08:17:33;17.40;90.60
16180;DHT22;8196;49.428;10.906;2023-05-14T08:20:00;17.50;91.10
16180;DHT22;8196;49.428;10.906;2023-05-14T08:22:27;17.60;89.40
16180;DHT22;8196;49.428;10.906;2023-05-14T08:24:54;17.80;90.10
16180;DHT22;8196;49.428;10.906;2023-05-14T08:27:20;17.90;88.30
16180;DHT22;8196;49.428;10.906;2023-05-14T08:29:48;17.90;86.30
16180;DHT22;8196;49.428;10.906;2023-05-14T08:32:15;17.30;86.50
16180;DHT22;8196;49.428;10.906;2023-05-14T08:34:50;17.00;88.40
16180;DHT22;8196;49.428;10.906;2023-05-14T08:37:17;16.90;90.00
16180;DHT22;8196;49.428;10.906;2023-05-14T08:39:44;16.80;90.20
16180;DHT22;8196;49.428;10.906;2023-05-14T08:42:11;16.80;90.60
16180;DHT22;8196;49.428;10.906;2023-05-14T08:44:47;16.60;91.20
16180;DHT22;8196;49.428;10.906;2023-05-14T08:47:17;16.70;91.50
16180;DHT22;8196;49.428;10.906;2023-05-14T08:49:46;16.50;91.40
16180;DHT22;8196;49.428;10.906;2023-05-14T08:52:15;16.50;92.00
16180;DHT22;8196;49.428;10.906;2023-05-14T08:54:44;16.60;91.70
16180;DHT22;8196;49.428;10.906;2023-05-14T08:57:12;16.60;92.00
16180;DHT22;8196;49.428;10.906;2023-05-14T08:59:39;16.70;92.20
16180;DHT22;8196;49.428;10.906;2023-05-14T09:02:09;17.00;92.20
16180;DHT22;8196;49.428;10.906;2023-05-14T09:04:38;17.20;91.30
16180;DHT22;8196;49.428;10.906;2023-05-14T09:07:06;17.40;90.60
16180;DHT22;8196;49.428;10.906;2023-05-14T09:09:33;17.50;90.50
16180;DHT22;8196;49.428;10.906;2023-05-14T09:12:01;17.70;90.30
16180;DHT22;8196;49.428;10.906;2023-05-14T09:14:27;17.80;89.00
16180;DHT22;8196;49.428;10.906;2023-05-14T09:16:54;17.80;87.30
16180;DHT22;8196;49.428;10.906;2023-05-14T09:19:23;17.80;88.30
16180;DHT22;8196;49.428;10.906;2023-05-14T09:21:49;17.80;88.20
16180;DHT22;8196;49.428;10.906;2023-05-14T09:24:19;17.70;88.60
16180;DHT22;8196;49.428;10.906;2023-05-14T09:26:49;17.60;87.90
16180;DHT22;8196;49.428;10.906;2023-05-14T09:29:17;17.50;88.50
16180;DHT22;8196;49.428;10.906;2023-05-14T09:31:44;17.30;89.30
16180;DHT22;8196;49.428;10.906;2023-05-14T09:34:11;17.20;89.80
16180;DHT22;8196;49.428;10.906;2023-05-14T09:36:48;17.00;90.30
16180;DHT22;8196;49.428;10.906;2023-05-14T09:39:16;17.00;90.70
16180;DHT22;8196;49.428;10.906;2023-05-14T09:41:43;17.00;90.50
16180;DHT22;8196;49.428;10.906;2023-05-14T09:44:09;17.00;90.40
16180;DHT22;8196;49.428;10.906;2023-05-14T09:46:36;17.00;89.60
16180;DHT22;8196;49.428;10.906;2023-05-14T09:49:03;17.10;90.00
16180;DHT22;8196;49.428;10.906;2023-05-14T09:51:31;16.90;89.30
16180;DHT22;8196;49.428;10.906;2023-05-14T09:53:59;17.40;89.30
16180;DHT22;8196;49.428;10.906;2023-05-14T09:56:26;17.70;87.30
16180;DHT22;8196;49.428;10.906;2023-05-14T09:58:52;17.90;87.20
16180;DHT22;8196;49.428;10.906;2023-05-14T10:01:21;18.40;86.70
16180;DHT22;8196;49.428;10.906;2023-05-14T10:03:48;19.50;85.60
16180;DHT22;8196;49.428;10.906;2023-05-14T10:06:18;21.60;73.50
16180;DHT22;8196;49.428;10.906;2023-05-14T10:08:48;22.20;71.50
16180;DHT22;8196;49.428;10.906;2023-05-14T10:11:18;22.60;67.50
16180;DHT22;8196;49.428;10.906;2023-05-14T10:14:02;23.00;64.50
16180;DHT22;8196;49.428;10.906;2023-05-14T10:16:30;23.30;64.60
16180;DHT22;8196;49.428;10.906;2023-05-14T10:19:07;24.00;62.30
16180;DHT22;8196;49.428;10.906;2023-05-14T10:21:35;24.70;62.40
16180;DHT22;8196;49.428;10.906;2023-05-14T10:24:03;23.90;60.00
16180;DHT22;8196;49.428;10.906;2023-05-14T10:26:33;23.80;59.60
16180;DHT22;8196;49.428;10.906;2023-05-14T10:29:00;23.70;60.00
16180;DHT22;8196;49.428;10.906;2023-05-14T10:31:47;24.50;58.70
16180;DHT22;8196;49.428;10.906;2023-05-14T10:37:02;28.70;52.30
16180;DHT22;8196;49.428;10.906;2023-05-14T10:39:40;29.90;47.30
16180;DHT22;8196;49.428;10.906;2023-05-14T10:42:10;30.80;44.60
16180;DHT22;8196;49.428;10.906;2023-05-14T10:44:45;30.00;43.60
16180;DHT22;8196;49.428;10.906;2023-05-14T10:47:14;28.90;45.20
16180;DHT22;8196;49.428;10.906;2023-05-14T10:49:42;27.50;46.70
16180;DHT22;8196;49.428;10.906;2023-05-14T10:52:11;26.30;48.70
16180;DHT22;8196;49.428;10.906;2023-05-14T10:54:37;25.30;50.00
16180;DHT22;8196;49.428;10.906;2023-05-14T10:57:10;24.20;51.40
16180;DHT22;8196;49.428;10.906;2023-05-14T10:59:40;23.80;54.40
16180;DHT22;8196;49.428;10.906;2023-05-14T11:02:18;24.30;55.40
16180;DHT22;8196;49.428;10.906;2023-05-14T11:07:39;28.60;47.60
16180;DHT22;8196;49.428;10.906;2023-05-14T11:10:08;30.50;45.40
16180;DHT22;8196;49.428;10.906;2023-05-14T11:12:36;30.90;39.70
16180;DHT22;8196;49.428;10.906;2023-05-14T11:15:06;29.50;41.70
16180;DHT22;8196;49.428;10.906;2023-05-14T11:17:34;29.30;43.30
16180;DHT22;8196;49.428;10.906;2023-05-14T11:20:01;28.30;44.70
16180;DHT22;8196;49.428;10.906;2023-05-14T11:22:28;27.80;44.00
16180;DHT22;8196;49.428;10.906;2023-05-14T11:24:55;25.60;47.70
16180;DHT22;8196;49.428;10.906;2023-05-14T11:27:22;25.40;48.60
16180;DHT22;8196;49.428;10.906;2023-05-14T11:29:49;24.30;51.70
16180;DHT22;8196;49.428;10.906;2023-05-14T11:32:17;23.40;53.70
16180;DHT22;8196;49.428;10.906;2023-05-14T11:34:45;22.10;56.00
16180;DHT22;8196;49.428;10.906;2023-05-14T11:37:13;22.10;56.60
16180;DHT22;8196;49.428;10.906;2023-05-14T11:39:50;21.70;58.10
16180;DHT22;8196;49.428;10.906;2023-05-14T11:42:18;21.70;59.00
16180;DHT22;8196;49.428;10.906;2023-05-14T11:44:47;22.40;58.80
16180;DHT22;8196;49.428;10.906;2023-05-14T11:47:15;22.40;59.30
16180;DHT22;8196;49.428;10.906;2023-05-14T11:49:43;23.00;58.50
16180;DHT22;8196;49.428;10.906;2023-05-14T11:52:10;24.70;53.40
16180;DHT22;8196;49.428;10.906;2023-05-14T11:54:41;26.10;53.00
16180;DHT22;8196;49.428;10.906;2023-05-14T11:57:11;28.40;48.40
16180;DHT22;8196;49.428;10.906;2023-05-14T11:59:38;30.80;45.50
16180;DHT22;8196;49.428;10.906;2023-05-14T12:02:10;32.50;40.90
16180;DHT22;8196;49.428;10.906;2023-05-14T12:04:38;33.50;37.40
16180;DHT22;8196;49.428;10.906;2023-05-14T12:07:08;33.90;36.70
16180;DHT22;8196;49.428;10.906;2023-05-14T12:09:40;33.70;35.80
16180;DHT22;8196;49.428;10.906;2023-05-14T12:12:11;32.90;37.20
16180;DHT22;8196;49.428;10.906;2023-05-14T12:14:39;32.00;38.00
16180;DHT22;8196;49.428;10.906;2023-05-14T12:17:11;31.60;39.40
16180;DHT22;8196;49.428;10.906;2023-05-14T12:19:39;30.90;39.40
16180;DHT22;8196;49.428;10.906;2023-05-14T12:22:08;30.50;40.20
16180;DHT22;8196;49.428;10.906;2023-05-14T12:24:36;30.60;40.30
16180;DHT22;8196;49.428;10.906;2023-05-14T12:27:03;31.90;39.00
16180;DHT22;8196;49.428;10.906;2023-05-14T12:29:33;29.80;35.80
16180;DHT22;8196;49.428;10.906;2023-05-14T12:32:00;33.20;35.90
16180;DHT22;8196;49.428;10.906;2023-05-14T12:34:30;31.40;34.80
16180;DHT22;8196;49.428;10.906;2023-05-14T12:36:56;31.80;38.00
16180;DHT22;8196;49.428;10.906;2023-05-14T12:39:23;29.80;40.20
16180;DHT22;8196;49.428;10.906;2023-05-14T12:41:50;28.00;43.50
16180;DHT22;8196;49.428;10.906;2023-05-14T12:44:17;26.40;45.80
16180;DHT22;8196;49.428;10.906;2023-05-14T12:46:44;24.90;48.30
16180;DHT22;8196;49.428;10.906;2023-05-14T12:49:11;24.40;50.90
16180;DHT22;8196;49.428;10.906;2023-05-14T12:51:38;23.90;51.10
16180;DHT22;8196;49.428;10.906;2023-05-14T12:54:05;23.40;52.20
16180;DHT22;8196;49.428;10.906;2023-05-14T12:56:31;22.90;53.20
16180;DHT22;8196;49.428;10.906;2023-05-14T12:58:58;22.70;53.60
16180;DHT22;8196;49.428;10.906;2023-05-14T13:01:25;22.60;54.90
16180;DHT22;8196;49.428;10.906;2023-05-14T13:03:51;22.50;53.80
16180;DHT22;8196;49.428;10.906;2023-05-14T13:06:18;22.50;54.20
16180;DHT22;8196;49.428;10.906;2023-05-14T13:08:45;22.50;54.90
16180;DHT22;8196;49.428;10.906;2023-05-14T13:11:12;22.40;55.60
16180;DHT22;8196;49.428;10.906;2023-05-14T13:13:39;22.70;56.30
16180;DHT22;8196;49.428;10.906;2023-05-14T13:16:06;22.80;55.90
16180;DHT22;8196;49.428;10.906;2023-05-14T13:18:32;22.80;56.30
16180;DHT22;8196;49.428;10.906;2023-05-14T13:20:59;22.60;55.90
16180;DHT22;8196;49.428;10.906;2023-05-14T13:23:29;22.30;55.30
16180;DHT22;8196;49.428;10.906;2023-05-14T13:25:56;22.20;56.10
16180;DHT22;8196;49.428;10.906;2023-05-14T13:28:23;22.20;56.00
16180;DHT22;8196;49.428;10.906;2023-05-14T13:31:07;22.10;56.20
16180;DHT22;8196;49.428;10.906;2023-05-14T13:33:35;22.90;56.90
16180;DHT22;8196;49.428;10.906;2023-05-14T13:36:03;25.30;51.60
16180;DHT22;8196;49.428;10.906;2023-05-14T13:38:30;26.00;50.30
16180;DHT22;8196;49.428;10.906;2023-05-14T13:40:57;26.20;48.80
16180;DHT22;8196;49.428;10.906;2023-05-14T13:43:30;26.50;49.10
16180;DHT22;8196;49.428;10.906;2023-05-14T13:45:58;26.00;49.00
16180;DHT22;8196;49.428;10.906;2023-05-14T13:48:25;25.90;50.50
16180;DHT22;8196;49.428;10.906;2023-05-14T13:50:53;26.70;48.30
16180;DHT22;8196;49.428;10.906;2023-05-14T13:53:20;27.00;47.40
16180;DHT22;8196;49.428;10.906;2023-05-14T13:55:48;30.40;42.30
16180;DHT22;8196;49.428;10.906;2023-05-14T13:58:16;31.40;40.70
16180;DHT22;8196;49.428;10.906;2023-05-14T14:00:42;33.20;38.20
16180;DHT22;8196;49.428;10.906;2023-05-14T14:03:09;34.20;35.80
16180;DHT22;8196;49.428;10.906;2023-05-14T14:05:36;35.50;32.60
16180;DHT22;8196;49.428;10.906;2023-05-14T14:08:03;33.00;29.90
16180;DHT22;8196;49.428;10.906;2023-05-14T14:10:48;35.10;32.60
16180;DHT22;8196;49.428;10.906;2023-05-14T14:13:15;33.40;33.50
16180;DHT22;8196;49.428;10.906;2023-05-14T14:15:42;31.90;36.10
16180;DHT22;8196;49.428;10.906;2023-05-14T14:18:09;31.80;36.50
16180;DHT22;8196;49.428;10.906;2023-05-14T14:20:36;30.40;37.30
16180;DHT22;8196;49.428;10.906;2023-05-14T14:23:02;29.30;40.50
16180;DHT22;8196;49.428;10.906;2023-05-14T14:25:29;30.00;39.60
16180;DHT22;8196;49.428;10.906;2023-05-14T14:27:56;33.20;41.70
16180;DHT22;8196;49.428;10.906;2023-05-14T14:30:23;31.30;38.50
16180;DHT22;8196;49.428;10.906;2023-05-14T14:32:50;33.10;36.90
16180;DHT22;8196;49.428;10.906;2023-05-14T14:35:18;32.50;33.30
16180;DHT22;8196;49.428;10.906;2023-05-14T14:37:45;33.20;35.10
16180;DHT22;8196;49.428;10.906;2023-05-14T14:40:16;32.70;35.20
16180;DHT22;8196;49.428;10.906;2023-05-14T14:42:43;31.20;36.60
16180;DHT22;8196;49.428;10.906;2023-05-14T14:45:10;27.40;41.70
16180;DHT22;8196;49.428;10.906;2023-05-14T14:47:41;27.00;42.60
16180;DHT22;8196;49.428;10.906;2023-05-14T14:50:08;25.50;45.90
16180;DHT22;8196;49.428;10.906;2023-05-14T14:52:35;24.10;48.20
16180;DHT22;8196;49.428;10.906;2023-05-14T14:55:02;22.30;50.80
16180;DHT22;8196;49.428;10.906;2023-05-14T14:57:29;22.30;51.60
16180;DHT22;8196;49.428;10.906;2023-05-14T14:59:55;21.70;53.00
16180;DHT22;8196;49.428;10.906;2023-05-14T15:02:22;21.30;53.90
16180;DHT22;8196;49.428;10.906;2023-05-14T15:04:49;21.00;55.10
16180;DHT22;8196;49.428;10.906;2023-05-14T15:07:16;21.00;55.70
16180;DHT22;8196;49.428;10.906;2023-05-14T15:09:44;21.60;56.40
16180;DHT22;8196;49.428;10.906;2023-05-14T15:12:10;23.20;52.80
16180;DHT22;8196;49.428;10.906;2023-05-14T15:14:37;24.10;50.80
16180;DHT22;8196;49.428;10.906;2023-05-14T15:17:04;24.20;50.00
16180;DHT22;8196;49.428;10.906;2023-05-14T15:19:31;24.30;49.60
16180;DHT22;8196;49.428;10.906;2023-05-14T15:21:58;24.30;49.20
16180;DHT22;8196;49.428;10.906;2023-05-14T15:24:24;24.30;49.70
16180;DHT22;8196;49.428;10.906;2023-05-14T15:26:51;24.50;48.30
16180;DHT22;8196;49.428;10.906;2023-05-14T15:29:19;24.70;48.80
16180;DHT22;8196;49.428;10.906;2023-05-14T15:31:46;25.30;48.30
16180;DHT22;8196;49.428;10.906;2023-05-14T15:34:13;25.40;47.90
16180;DHT22;8196;49.428;10.906;2023-05-14T15:36:39;25.50;48.20
16180;DHT22;8196;49.428;10.906;2023-05-14T15:39:06;26.00;47.80
16180;DHT22;8196;49.428;10.906;2023-05-14T15:41:35;26.00;47.00
16180;DHT22;8196;49.428;10.906;2023-05-14T15:44:02;26.70;46.80
16180;DHT22;8196;49.428;10.906;2023-05-14T15:46:29;26.60;44.30
16180;DHT22;8196;49.428;10.906;2023-05-14T15:48:56;26.70;44.90
16180;DHT22;8196;49.428;10.906;2023-05-14T15:51:23;28.40;43.30